sensor_id;sensor_type;location;lat;lon;timestamp;P1;durP1;ratioP1;P2;durP2;ratioP2
35685;SDS011;21808;42.142;24.720;2024-02-21T00:01:21;59.25;;;24.35;;
35685;SDS011;21808;42.142;24.720;2024-02-21T00:03:48;55.92;;;24.00;;
35685;SDS011;21808;42.142;24.720;2024-02-21T00:06:15;59.63;;;23.35;;
35685;SDS011;21808;42.142;24.720;2024-02-21T00:08:41;55.65;;;24.48;;
35685;SDS011;21808;42.142;24.720;2024-02-21T00:11:08;55.78;;;24.13;;
35685;SDS011;21808;42.142;24.720;2024-02-21T00:13:36;57.25;;;24.90;;
35685;SDS011;21808;42.142;24.720;2024-02-21T00:16:03;58.90;;;24.35;;
35685;SDS011;21808;42.142;24.720;2024-02-21T00:18:31;63.88;;;26.45;;
35685;SDS011;21808;42.142;24.720;2024-02-21T00:20:58;70.35;;;26.40;;
35685;SDS011;21808;42.142;24.720;2024-02-21T00:23:24;57.10;;;24.45;;
35685;SDS011;21808;42.142;24.720;2024-02-21T00:25:51;56.33;;;23.67;;
35685;SDS011;21808;42.142;24.720;2024-02-21T00:28:18;61.13;;;24.10;;
35685;SDS011;21808;42.142;24.720;2024-02-21T00:30:45;56.55;;;25.05;;
35685;SDS011;21808;42.142;24.720;2024-02-21T00:33:13;62.13;;;25.55;;
35685;SDS011;21808;42.142;24.720;2024-02-21T00:35:45;62.50;;;23.17;;
35685;SDS011;21808;42.142;24.720;2024-02-21T00:38:11;64.82;;;25.98;;
35685;SDS011;21808;42.142;24.720;2024-02-21T00:40:38;61.15;;;24.85;;
35685;SDS011;21808;42.142;24.720;2024-02-21T00:43:05;70.30;;;25.30;;
35685;SDS011;21808;42.142;24.720;2024-02-21T00:45:32;65.78;;;25.02;;
35685;SDS011;21808;42.142;24.720;2024-02-21T00:47:59;64.80;;;26.00;;
35685;SDS011;21808;42.142;24.720;2024-02-21T00:50:26;60.05;;;24.80;;
35685;SDS011;21808;42.142;24.720;2024-02-21T00:52:54;61.97;;;28.92;;
35685;SDS011;21808;42.142;24.720;2024-02-21T00:55:21;59.35;;;25.95;;
35685;SDS011;21808;42.142;24.720;2024-02-21T00:57:48;57.40;;;25.08;;
35685;SDS011;21808;42.142;24.720;2024-02-21T01:00:15;62.63;;;25.00;;
35685;SDS011;21808;42.142;24.720;2024-02-21T01:02:42;63.28;;;25.58;;
35685;SDS011;21808;42.142;24.720;2024-02-21T01:05:09;61.75;;;26.10;;
35685;SDS011;21808;42.142;24.720;2024-02-21T01:07:36;62.80;;;26.02;;
35685;SDS011;21808;42.142;24.720;2024-02-21T01:10:05;62.42;;;27.00;;
35685;SDS011;21808;42.142;24.720;2024-02-21T01:12:31;61.90;;;27.58;;
35685;SDS011;21808;42.142;24.720;2024-02-21T01:14:58;55.85;;;24.15;;
35685;SDS011;21808;42.142;24.720;2024-02-21T01:17:27;53.75;;;22.80;;
35685;SDS011;21808;42.142;24.720;2024-02-21T01:19:53;54.88;;;22.55;;
35685;SDS011;21808;42.142;24.720;2024-02-21T01:22:20;51.67;;;22.48;;
35685;SDS011;21808;42.142;24.720;2024-02-21T01:24:47;50.30;;;21.75;;
35685;SDS011;21808;42.142;24.720;2024-02-21T01:27:15;48.72;;;21.77;;
35685;SDS011;21808;42.142;24.720;2024-02-21T01:29:43;47.58;;;20.20;;
35685;SDS011;21808;42.142;24.720;2024-02-21T01:32:09;47.45;;;19.75;;
35685;SDS011;21808;42.142;24.720;2024-02-21T01:34:36;46.13;;;20.75;;
35685;SDS011;21808;42.142;24.720;2024-02-21T01:37:04;47.05;;;19.77;;
35685;SDS011;21808;42.142;24.720;2024-02-21T01:39:33;47.97;;;19.48;;
35685;SDS011;21808;42.142;24.720;2024-02-21T01:42:00;46.97;;;21.15;;
35685;SDS011;21808;42.142;24.720;2024-02-21T01:44:31;44.30;;;18.45;;
35685;SDS011;21808;42.142;24.720;2024-02-21T01:46:58;43.72;;;18.42;;
35685;SDS011;21808;42.142;24.720;2024-02-21T01:49:24;45.20;;;18.70;;
35685;SDS011;21808;42.142;24.720;2024-02-21T01:51:51;42.33;;;19.58;;
35685;SDS011;21808;42.142;24.720;2024-02-21T01:54:19;43.63;;;19.77;;
35685;SDS011;21808;42.142;24.720;2024-02-21T01:56:46;44.10;;;18.60;;
35685;SDS011;21808;42.142;24.720;2024-02-21T01:59:14;43.60;;;18.52;;
35685;SDS011;21808;42.142;24.720;2024-02-21T02:01:43;47.67;;;20.20;;
35685;SDS011;21808;42.142;24.720;2024-02-21T02:04:10;44.13;;;19.50;;
35685;SDS011;21808;42.142;24.720;2024-02-21T02:06:37;49.35;;;20.27;;
35685;SDS011;21808;42.142;24.720;2024-02-21T02:09:04;42.30;;;18.25;;
35685;SDS011;21808;42.142;24.720;2024-02-21T02:11:31;48.95;;;19.25;;
35685;SDS011;21808;42.142;24.720;2024-02-21T02:13:58;41.22;;;18.08;;
35685;SDS011;21808;42.142;24.720;2024-02-21T02:16:25;41.40;;;19.35;;
35685;SDS011;21808;42.142;24.720;2024-02-21T02:18:53;47.22;;;21.27;;
35685;SDS011;21808;42.142;24.720;2024-02-21T02:21:24;45.03;;;19.90;;
35685;SDS011;21808;42.142;24.720;2024-02-21T02:23:55;47.72;;;19.50;;
35685;SDS011;21808;42.142;24.720;2024-02-21T02:26:22;44.67;;;20.15;;
35685;SDS011;21808;42.142;24.720;2024-02-21T02:28:49;43.95;;;19.95;;
35685;SDS011;21808;42.142;24.720;2024-02-21T02:31:19;41.75;;;17.95;;
35685;SDS011;21808;42.142;24.720;2024-02-21T02:33:45;43.63;;;20.50;;
35685;SDS011;21808;42.142;24.720;2024-02-21T02:36:12;41.47;;;19.58;;
35685;SDS011;21808;42.142;24.720;2024-02-21T02:38:39;42.45;;;20.38;;
35685;SDS011;21808;42.142;24.720;2024-02-21T02:41:07;40.95;;;19.85;;
35685;SDS011;21808;42.142;24.720;2024-02-21T02:43:34;43.60;;;18.90;;
35685;SDS011;21808;42.142;24.720;2024-02-21T02:46:01;37.58;;;17.33;;
35685;SDS011;21808;42.142;24.720;2024-02-21T02:48:27;42.25;;;18.92;;
35685;SDS011;21808;42.142;24.720;2024-02-21T02:50:54;35.45;;;16.27;;
35685;SDS011;21808;42.142;24.720;2024-02-21T02:53:21;41.97;;;17.48;;
35685;SDS011;21808;42.142;24.720;2024-02-21T02:55:48;38.60;;;17.70;;
35685;SDS011;21808;42.142;24.720;2024-02-21T02:58:18;38.13;;;17.95;;
35685;SDS011;21808;42.142;24.720;2024-02-21T03:00:45;36.95;;;16.90;;
35685;SDS011;21808;42.142;24.720;2024-02-21T03:03:11;38.75;;;17.50;;
35685;SDS011;21808;42.142;24.720;2024-02-21T03:05:38;36.95;;;16.63;;
35685;SDS011;21808;42.142;24.720;2024-02-21T03:08:05;40.83;;;16.75;;
35685;SDS011;21808;42.142;24.720;2024-02-21T03:10:33;38.05;;;16.10;;
35685;SDS011;21808;42.142;24.720;2024-02-21T03:13:00;36.13;;;16.95;;
35685;SDS011;21808;42.142;24.720;2024-02-21T03:15:28;37.97;;;15.82;;
35685;SDS011;21808;42.142;24.720;2024-02-21T03:17:55;37.00;;;17.02;;
35685;SDS011;21808;42.142;24.720;2024-02-21T03:20:22;36.28;;;17.13;;
35685;SDS011;21808;42.142;24.720;2024-02-21T03:22:48;33.67;;;15.93;;
35685;SDS011;21808;42.142;24.720;2024-02-21T03:25:16;38.13;;;16.30;;
35685;SDS011;21808;42.142;24.720;2024-02-21T03:27:42;33.88;;;15.40;;
35685;SDS011;21808;42.142;24.720;2024-02-21T03:30:09;37.38;;;16.23;;
35685;SDS011;21808;42.142;24.720;2024-02-21T03:32:37;39.28;;;16.52;;
35685;SDS011;21808;42.142;24.720;2024-02-21T03:35:06;37.53;;;15.70;;
35685;SDS011;21808;42.142;24.720;2024-02-21T03:37:33;32.97;;;16.08;;
35685;SDS011;21808;42.142;24.720;2024-02-21T03:39:59;37.80;;;17.85;;
35685;SDS011;21808;42.142;24.720;2024-02-21T03:42:26;33.53;;;16.25;;
35685;SDS011;21808;42.142;24.720;2024-02-21T03:44:56;37.88;;;16.33;;
35685;SDS011;21808;42.142;24.720;2024-02-21T03:47:22;33.75;;;15.88;;
35685;SDS011;21808;42.142;24.720;2024-02-21T03:49:51;35.08;;;15.80;;
35685;SDS011;21808;42.142;24.720;2024-02-21T03:52:18;34.72;;;16.30;;
35685;SDS011;21808;42.142;24.720;2024-02-21T03:54:44;32.85;;;15.18;;
35685;SDS011;21808;42.142;24.720;2024-02-21T03:57:11;34.33;;;15.07;;
35685;SDS011;21808;42.142;24.720;2024-02-21T03:59:38;34.88;;;16.55;;
35685;SDS011;21808;42.142;24.720;2024-02-21T04:02:10;32.72;;;14.75;;
35685;SDS011;21808;42.142;24.720;2024-02-21T04:04:37;30.75;;;15.68;;
35685;SDS011;21808;42.142;24.720;2024-02-21T04:07:05;34.17;;;15.82;;
35685;SDS011;21808;42.142;24.720;2024-02-21T04:09:32;33.42;;;15.93;;
35685;SDS011;21808;42.142;24.720;2024-02-21T04:12:00;37.80;;;17.50;;
35685;SDS011;21808;42.142;24.720;2024-02-21T04:14:27;36.65;;;16.20;;
35685;SDS011;21808;42.142;24.720;2024-02-21T04:16:54;30.92;;;14.38;;
35685;SDS011;21808;42.142;24.720;2024-02-21T04:19:20;32.30;;;14.63;;
35685;SDS011;21808;42.142;24.720;2024-02-21T04:21:47;31.13;;;13.82;;
35685;SDS011;21808;42.142;24.720;2024-02-21T04:24:15;30.60;;;14.38;;
35685;SDS011;21808;42.142;24.720;2024-02-21T04:26:42;27.77;;;13.68;;
35685;SDS011;21808;42.142;24.720;2024-02-21T04:29:10;32.60;;;16.08;;
35685;SDS011;21808;42.142;24.720;2024-02-21T04:31:37;30.67;;;15.77;;
35685;SDS011;21808;42.142;24.720;2024-02-21T04:34:05;31.88;;;15.32;;
35685;SDS011;21808;42.142;24.720;2024-02-21T04:36:32;31.88;;;15.40;;
35685;SDS011;21808;42.142;24.720;2024-02-21T04:38:59;32.13;;;15.00;;
35685;SDS011;21808;42.142;24.720;2024-02-21T04:41:28;29.80;;;13.90;;
35685;SDS011;21808;42.142;24.720;2024-02-21T04:43:55;37.55;;;16.52;;
35685;SDS011;21808;42.142;24.720;2024-02-21T04:46:22;34.08;;;16.33;;
35685;SDS011;21808;42.142;24.720;2024-02-21T04:48:49;43.40;;;20.45;;
35685;SDS011;21808;42.142;24.720;2024-02-21T04:51:16;50.35;;;24.40;;
35685;SDS011;21808;42.142;24.720;2024-02-21T04:53:43;51.45;;;22.70;;
35685;SDS011;21808;42.142;24.720;2024-02-21T04:56:10;43.17;;;20.20;;
35685;SDS011;21808;42.142;24.720;2024-02-21T04:58:39;51.25;;;22.20;;
35685;SDS011;21808;42.142;24.720;2024-02-21T05:01:06;48.92;;;22.85;;
35685;SDS011;21808;42.142;24.720;2024-02-21T05:03:34;45.20;;;22.88;;
35685;SDS011;21808;42.142;24.720;2024-02-21T05:06:01;52.72;;;24.88;;
35685;SDS011;21808;42.142;24.720;2024-02-21T05:08:28;52.60;;;23.70;;
35685;SDS011;21808;42.142;24.720;2024-02-21T05:10:54;45.67;;;20.02;;
35685;SDS011;21808;42.142;24.720;2024-02-21T05:13:21;48.55;;;21.38;;
35685;SDS011;21808;42.142;24.720;2024-02-21T05:15:49;45.13;;;21.52;;
35685;SDS011;21808;42.142;24.720;2024-02-21T05:18:16;50.63;;;23.98;;
35685;SDS011;21808;42.142;24.720;2024-02-21T05:20:43;54.28;;;24.30;;
35685;SDS011;21808;42.142;24.720;2024-02-21T05:23:10;59.58;;;25.67;;
35685;SDS011;21808;42.142;24.720;2024-02-21T05:25:37;60.65;;;26.83;;
35685;SDS011;21808;42.142;24.720;2024-02-21T05:28:04;57.95;;;27.10;;
35685;SDS011;21808;42.142;24.720;2024-02-21T05:30:33;52.67;;;23.90;;
35685;SDS011;21808;42.142;24.720;2024-02-21T05:33:03;52.83;;;24.38;;
35685;SDS011;21808;42.142;24.720;2024-02-21T05:35:30;64.60;;;28.95;;
35685;SDS011;21808;42.142;24.720;2024-02-21T05:37:57;59.20;;;25.92;;
35685;SDS011;21808;42.142;24.720;2024-02-21T05:40:23;56.78;;;24.98;;
35685;SDS011;21808;42.142;24.720;2024-02-21T05:42:51;49.90;;;23.27;;
35685;SDS011;21808;42.142;24.720;2024-02-21T05:45:18;64.10;;;26.77;;
35685;SDS011;21808;42.142;24.720;2024-02-21T05:47:45;47.17;;;21.48;;
35685;SDS011;21808;42.142;24.720;2024-02-21T05:50:13;55.67;;;25.50;;
35685;SDS011;21808;42.142;24.720;2024-02-21T05:52:40;51.65;;;24.33;;
35685;SDS011;21808;42.142;24.720;2024-02-21T05:55:07;48.05;;;22.17;;
35685;SDS011;21808;42.142;24.720;2024-02-21T05:57:34;53.53;;;24.33;;
35685;SDS011;21808;42.142;24.720;2024-02-21T06:00:02;55.50;;;25.60;;
35685;SDS011;21808;42.142;24.720;2024-02-21T06:02:29;61.83;;;26.23;;
35685;SDS011;21808;42.142;24.720;2024-02-21T06:04:56;59.83;;;25.70;;
35685;SDS011;21808;42.142;24.720;2024-02-21T06:07:24;55.72;;;24.85;;
35685;SDS011;21808;42.142;24.720;2024-02-21T06:09:51;67.90;;;27.77;;
35685;SDS011;21808;42.142;24.720;2024-02-21T06:12:17;61.83;;;26.10;;
35685;SDS011;21808;42.142;24.720;2024-02-21T06:14:44;55.75;;;25.63;;
35685;SDS011;21808;42.142;24.720;2024-02-21T06:17:11;61.85;;;26.83;;
35685;SDS011;21808;42.142;24.720;2024-02-21T06:19:39;66.50;;;26.73;;
35685;SDS011;21808;42.142;24.720;2024-02-21T06:22:07;59.60;;;27.98;;
35685;SDS011;21808;42.142;24.720;2024-02-21T06:24:36;61.63;;;27.70;;
35685;SDS011;21808;42.142;24.720;2024-02-21T06:27:03;57.72;;;25.70;;
35685;SDS011;21808;42.142;24.720;2024-02-21T06:29:35;58.83;;;26.05;;
35685;SDS011;21808;42.142;24.720;2024-02-21T06:32:02;63.22;;;26.50;;
35685;SDS011;21808;42.142;24.720;2024-02-21T06:34:29;56.10;;;26.45;;
35685;SDS011;21808;42.142;24.720;2024-02-21T06:36:59;55.65;;;24.60;;
35685;SDS011;21808;42.142;24.720;2024-02-21T06:39:29;54.38;;;23.25;;
35685;SDS011;21808;42.142;24.720;2024-02-21T06:41:57;52.95;;;24.38;;
35685;SDS011;21808;42.142;24.720;2024-02-21T06:44:29;54.72;;;23.83;;
35685;SDS011;21808;42.142;24.720;2024-02-21T06:46:56;51.33;;;23.08;;
35685;SDS011;21808;42.142;24.720;2024-02-21T06:49:22;44.35;;;20.48;;
35685;SDS011;21808;42.142;24.720;2024-02-21T06:51:49;48.03;;;21.50;;
35685;SDS011;21808;42.142;24.720;2024-02-21T06:54:16;46.42;;;21.20;;
35685;SDS011;21808;42.142;24.720;2024-02-21T06:56:43;46.92;;;20.98;;
35685;SDS011;21808;42.142;24.720;2024-02-21T06:59:14;39.92;;;18.55;;
35685;SDS011;21808;42.142;24.720;2024-02-21T07:01:44;39.15;;;17.45;;
35685;SDS011;21808;42.142;24.720;2024-02-21T07:04:11;38.08;;;17.95;;
35685;SDS011;21808;42.142;24.720;2024-02-21T07:06:38;37.75;;;17.08;;
35685;SDS011;21808;42.142;24.720;2024-02-21T07:09:05;31.98;;;16.17;;
35685;SDS011;21808;42.142;24.720;2024-02-21T07:11:31;33.22;;;16.42;;
35685;SDS011;21808;42.142;24.720;2024-02-21T07:13:58;33.30;;;15.80;;
35685;SDS011;21808;42.142;24.720;2024-02-21T07:16:27;37.97;;;16.98;;
35685;SDS011;21808;42.142;24.720;2024-02-21T07:18:58;35.92;;;16.40;;
35685;SDS011;21808;42.142;24.720;2024-02-21T07:21:28;38.67;;;16.75;;
35685;SDS011;21808;42.142;24.720;2024-02-21T07:23:54;37.47;;;17.55;;
35685;SDS011;21808;42.142;24.720;2024-02-21T07:26:21;36.55;;;17.70;;
35685;SDS011;21808;42.142;24.720;2024-02-21T07:28:48;39.78;;;19.15;;
35685;SDS011;21808;42.142;24.720;2024-02-21T07:31:19;39.50;;;18.40;;
35685;SDS011;21808;42.142;24.720;2024-02-21T07:33:48;38.83;;;18.73;;
35685;SDS011;21808;42.142;24.720;2024-02-21T07:36:15;39.10;;;18.90;;
35685;SDS011;21808;42.142;24.720;2024-02-21T07:38:43;31.20;;;15.98;;
35685;SDS011;21808;42.142;24.720;2024-02-21T07:41:09;31.60;;;13.90;;
35685;SDS011;21808;42.142;24.720;2024-02-21T07:43:36;34.47;;;16.58;;
35685;SDS011;21808;42.142;24.720;2024-02-21T07:46:03;31.98;;;15.35;;
35685;SDS011;21808;42.142;24.720;2024-02-21T07:48:30;29.60;;;13.55;;
35685;SDS011;21808;42.142;24.720;2024-02-21T07:51:02;32.78;;;15.45;;
35685;SDS011;21808;42.142;24.720;2024-02-21T07:53:29;32.33;;;15.00;;
35685;SDS011;21808;42.142;24.720;2024-02-21T07:55:55;28.65;;;14.13;;
35685;SDS011;21808;42.142;24.720;2024-02-21T07:58:22;34.75;;;14.65;;
35685;SDS011;21808;42.142;24.720;2024-02-21T08:00:49;32.85;;;14.93;;
35685;SDS011;21808;42.142;24.720;2024-02-21T08:03:16;33.28;;;15.75;;
35685;SDS011;21808;42.142;24.720;2024-02-21T08:05:44;30.23;;;13.68;;
35685;SDS011;21808;42.142;24.720;2024-02-21T08:08:12;34.95;;;15.13;;
35685;SDS011;21808;42.142;24.720;2024-02-21T08:10:45;25.23;;;12.15;;
35685;SDS011;21808;42.142;24.720;2024-02-21T08:13:14;27.75;;;13.15;;
35685;SDS011;21808;42.142;24.720;2024-02-21T08:15:41;29.38;;;13.35;;
35685;SDS011;21808;42.142;24.720;2024-02-21T08:18:08;17.65;;;8.30;;
35685;SDS011;21808;42.142;24.720;2024-02-21T08:20:35;20.05;;;9.25;;
35685;SDS011;21808;42.142;24.720;2024-02-21T08:23:02;19.23;;;9.10;;
35685;SDS011;21808;42.142;24.720;2024-02-21T08:25:30;12.93;;;5.18;;
35685;SDS011;21808;42.142;24.720;2024-02-21T08:27:57;18.90;;;7.47;;
35685;SDS011;21808;42.142;24.720;2024-02-21T08:30:24;19.90;;;9.85;;
35685;SDS011;21808;42.142;24.720;2024-02-21T08:32:51;17.63;;;8.77;;
35685;SDS011;21808;42.142;24.720;2024-02-21T08:35:18;19.23;;;8.63;;
35685;SDS011;21808;42.142;24.720;2024-02-21T08:37:45;20.75;;;8.95;;
35685;SDS011;21808;42.142;24.720;2024-02-21T08:40:14;18.90;;;9.00;;
35685;SDS011;21808;42.142;24.720;2024-02-21T08:42:45;21.48;;;10.00;;
35685;SDS011;21808;42.142;24.720;2024-02-21T08:45:12;20.45;;;9.60;;
35685;SDS011;21808;42.142;24.720;2024-02-21T08:47:39;21.77;;;9.48;;
35685;SDS011;21808;42.142;24.720;2024-02-21T08:50:06;22.58;;;9.73;;
35685;SDS011;21808;42.142;24.720;2024-02-21T08:52:44;26.88;;;9.55;;
35685;SDS011;21808;42.142;24.720;2024-02-21T08:55:11;22.38;;;9.88;;
35685;SDS011;21808;42.142;24.720;2024-02-21T08:57:38;21.02;;;10.27;;
35685;SDS011;21808;42.142;24.720;2024-02-21T09:00:07;22.55;;;9.10;;
35685;SDS011;21808;42.142;24.720;2024-02-21T09:02:36;19.65;;;9.05;;
35685;SDS011;21808;42.142;24.720;2024-02-21T09:05:04;20.85;;;9.57;;
35685;SDS011;21808;42.142;24.720;2024-02-21T09:07:31;22.67;;;11.10;;
35685;SDS011;21808;42.142;24.720;2024-02-21T09:09:58;19.48;;;9.05;;
35685;SDS011;21808;42.142;24.720;2024-02-21T09:12:25;20.58;;;9.32;;
35685;SDS011;21808;42.142;24.720;2024-02-21T09:14:52;20.80;;;8.85;;
35685;SDS011;21808;42.142;24.720;2024-02-21T09:17:20;25.95;;;10.98;;
35685;SDS011;21808;42.142;24.720;2024-02-21T09:19:47;22.65;;;11.75;;
35685;SDS011;21808;42.142;24.720;2024-02-21T09:22:14;21.13;;;10.63;;
35685;SDS011;21808;42.142;24.720;2024-02-21T09:24:41;20.50;;;10.35;;
35685;SDS011;21808;42.142;24.720;2024-02-21T09:27:08;19.65;;;8.63;;
35685;SDS011;21808;42.142;24.720;2024-02-21T09:29:37;17.48;;;7.63;;
35685;SDS011;21808;42.142;24.720;2024-02-21T09:34:36;15.00;;;7.00;;
35685;SDS011;21808;42.142;24.720;2024-02-21T09:37:03;19.70;;;7.65;;
35685;SDS011;21808;42.142;24.720;2024-02-21T09:39:32;17.60;;;7.90;;
35685;SDS011;21808;42.142;24.720;2024-02-21T09:42:01;16.23;;;7.47;;
35685;SDS011;21808;42.142;24.720;2024-02-21T09:44:32;16.73;;;7.63;;
35685;SDS011;21808;42.142;24.720;2024-02-21T09:47:02;14.55;;;6.35;;
35685;SDS011;21808;42.142;24.720;2024-02-21T09:49:32;16.05;;;6.68;;
35685;SDS011;21808;42.142;24.720;2024-02-21T09:52:02;17.08;;;7.05;;
35685;SDS011;21808;42.142;24.720;2024-02-21T09:54:29;14.57;;;6.32;;
35685;SDS011;21808;42.142;24.720;2024-02-21T09:56:59;16.23;;;7.10;;
35685;SDS011;21808;42.142;24.720;2024-02-21T09:59:25;15.65;;;7.15;;
35685;SDS011;21808;42.142;24.720;2024-02-21T10:01:54;15.68;;;7.22;;
35685;SDS011;21808;42.142;24.720;2024-02-21T10:04:20;14.25;;;6.28;;
35685;SDS011;21808;42.142;24.720;2024-02-21T10:06:47;13.80;;;6.13;;
35685;SDS011;21808;42.142;24.720;2024-02-21T10:09:22;20.88;;;8.68;;
35685;SDS011;21808;42.142;24.720;2024-02-21T10:11:50;15.38;;;6.28;;
35685;SDS011;21808;42.142;24.720;2024-02-21T10:14:18;17.95;;;6.70;;
35685;SDS011;21808;42.142;24.720;2024-02-21T10:16:47;15.52;;;7.22;;
35685;SDS011;21808;42.142;24.720;2024-02-21T10:19:17;13.18;;;6.22;;
35685;SDS011;21808;42.142;24.720;2024-02-21T10:21:57;15.15;;;6.90;;
35685;SDS011;21808;42.142;24.720;2024-02-21T10:24:27;16.75;;;8.25;;
35685;SDS011;21808;42.142;24.720;2024-02-21T10:29:21;12.75;;;4.97;;
35685;SDS011;21808;42.142;24.720;2024-02-21T10:31:48;16.05;;;6.00;;
35685;SDS011;21808;42.142;24.720;2024-02-21T10:34:16;13.43;;;5.75;;
35685;SDS011;21808;42.142;24.720;2024-02-21T10:36:43;15.80;;;6.28;;
35685;SDS011;21808;42.142;24.720;2024-02-21T10:39:10;15.43;;;5.93;;
35685;SDS011;21808;42.142;24.720;2024-02-21T10:41:40;17.50;;;7.65;;
35685;SDS011;21808;42.142;24.720;2024-02-21T10:44:08;15.50;;;6.35;;
35685;SDS011;21808;42.142;24.720;2024-02-21T10:46:36;13.32;;;6.25;;
35685;SDS011;21808;42.142;24.720;2024-02-21T10:49:07;14.32;;;6.15;;
35685;SDS011;21808;42.142;24.720;2024-02-21T10:51:37;12.55;;;5.40;;
35685;SDS011;21808;42.142;24.720;2024-02-21T10:54:11;12.95;;;5.78;;
35685;SDS011;21808;42.142;24.720;2024-02-21T10:56:41;13.38;;;5.95;;
35685;SDS011;21808;42.142;24.720;2024-02-21T10:59:08;12.95;;;5.90;;
35685;SDS011;21808;42.142;24.720;2024-02-21T11:01:35;13.85;;;5.93;;
35685;SDS011;21808;42.142;24.720;2024-02-21T11:04:03;13.75;;;6.03;;
35685;SDS011;21808;42.142;24.720;2024-02-21T11:06:30;12.50;;;5.70;;
35685;SDS011;21808;42.142;24.720;2024-02-21T11:09:01;12.05;;;5.90;;
35685;SDS011;21808;42.142;24.720;2024-02-21T11:11:29;13.25;;;5.57;;
35685;SDS011;21808;42.142;24.720;2024-02-21T11:14:07;13.80;;;5.53;;
35685;SDS011;21808;42.142;24.720;2024-02-21T11:16:37;12.05;;;5.25;;
35685;SDS011;21808;42.142;24.720;2024-02-21T11:19:06;13.65;;;4.78;;
35685;SDS011;21808;42.142;24.720;2024-02-21T11:21:36;10.82;;;5.15;;
35685;SDS011;21808;42.142;24.720;2024-02-21T11:24:03;11.25;;;5.20;;
35685;SDS011;21808;42.142;24.720;2024-02-21T11:26:30;10.23;;;4.85;;
35685;SDS011;21808;42.142;24.720;2024-02-21T11:28:58;13.65;;;5.95;;
35685;SDS011;21808;42.142;24.720;2024-02-21T11:31:27;11.20;;;4.60;;
35685;SDS011;21808;42.142;24.720;2024-02-21T11:34:04;12.90;;;5.03;;
35685;SDS011;21808;42.142;24.720;2024-02-21T11:36:31;11.35;;;5.53;;
35685;SDS011;21808;42.142;24.720;2024-02-21T11:39:02;11.52;;;5.30;;
35685;SDS011;21808;42.142;24.720;2024-02-21T11:41:31;13.38;;;5.20;;
35685;SDS011;21808;42.142;24.720;2024-02-21T11:43:59;14.95;;;6.40;;
35685;SDS011;21808;42.142;24.720;2024-02-21T11:46:25;11.60;;;5.15;;
35685;SDS011;21808;42.142;24.720;2024-02-21T11:48:53;12.30;;;5.40;;
35685;SDS011;21808;42.142;24.720;2024-02-21T11:51:21;13.23;;;5.32;;
35685;SDS011;21808;42.142;24.720;2024-02-21T11:53:48;11.88;;;5.10;;
35685;SDS011;21808;42.142;24.720;2024-02-21T11:56:26;13.07;;;5.22;;
35685;SDS011;21808;42.142;24.720;2024-02-21T11:58:53;14.15;;;6.82;;
35685;SDS011;21808;42.142;24.720;2024-02-21T12:01:20;10.98;;;5.05;;
35685;SDS011;21808;42.142;24.720;2024-02-21T12:03:47;10.30;;;4.43;;
35685;SDS011;21808;42.142;24.720;2024-02-21T12:06:17;11.27;;;4.15;;
35685;SDS011;21808;42.142;24.720;2024-02-21T12:08:47;10.90;;;4.90;;
35685;SDS011;21808;42.142;24.720;2024-02-21T12:11:18;10.10;;;4.25;;
35685;SDS011;21808;42.142;24.720;2024-02-21T12:13:45;10.00;;;4.38;;
35685;SDS011;21808;42.142;24.720;2024-02-21T12:16:12;11.88;;;4.07;;
35685;SDS011;21808;42.142;24.720;2024-02-21T12:18:41;9.20;;;4.00;;
35685;SDS011;21808;42.142;24.720;2024-02-21T12:21:08;11.75;;;3.95;;
35685;SDS011;21808;42.142;24.720;2024-02-21T12:23:39;9.02;;;3.95;;
35685;SDS011;21808;42.142;24.720;2024-02-21T12:26:06;10.18;;;3.72;;
35685;SDS011;21808;42.142;24.720;2024-02-21T12:28:34;9.32;;;3.55;;
35685;SDS011;21808;42.142;24.720;2024-02-21T12:31:01;10.73;;;4.43;;
35685;SDS011;21808;42.142;24.720;2024-02-21T12:33:30;9.57;;;3.88;;
35685;SDS011;21808;42.142;24.720;2024-02-21T12:35:57;9.70;;;4.05;;
35685;SDS011;21808;42.142;24.720;2024-02-21T12:38:24;9.50;;;3.95;;
35685;SDS011;21808;42.142;24.720;2024-02-21T12:40:52;10.30;;;4.20;;
35685;SDS011;21808;42.142;24.720;2024-02-21T12:43:19;12.15;;;3.92;;
35685;SDS011;21808;42.142;24.720;2024-02-21T12:45:46;9.10;;;3.65;;
35685;SDS011;21808;42.142;24.720;2024-02-21T12:48:13;10.18;;;4.55;;
35685;SDS011;21808;42.142;24.720;2024-02-21T12:50:40;9.27;;;3.60;;
35685;SDS011;21808;42.142;24.720;2024-02-21T12:53:10;8.85;;;3.45;;
35685;SDS011;21808;42.142;24.720;2024-02-21T12:55:52;9.20;;;3.42;;
35685;SDS011;21808;42.142;24.720;2024-02-21T12:58:19;8.43;;;3.00;;
35685;SDS011;21808;42.142;24.720;2024-02-21T13:00:47;8.55;;;3.50;;
35685;SDS011;21808;42.142;24.720;2024-02-21T13:03:14;8.32;;;3.22;;
35685;SDS011;21808;42.142;24.720;2024-02-21T13:05:41;9.45;;;3.40;;
35685;SDS011;21808;42.142;24.720;2024-02-21T13:08:11;7.75;;;2.88;;
35685;SDS011;21808;42.142;24.720;2024-02-21T13:10:38;9.75;;;3.60;;
35685;SDS011;21808;42.142;24.720;2024-02-21T13:13:06;9.18;;;3.58;;
35685;SDS011;21808;42.142;24.720;2024-02-21T13:15:33;7.55;;;2.83;;
35685;SDS011;21808;42.142;24.720;2024-02-21T13:18:00;9.00;;;2.80;;
35685;SDS011;21808;42.142;24.720;2024-02-21T13:20:27;7.85;;;3.45;;
35685;SDS011;21808;42.142;24.720;2024-02-21T13:22:56;11.48;;;3.65;;
35685;SDS011;21808;42.142;24.720;2024-02-21T13:25:22;9.48;;;3.58;;
35685;SDS011;21808;42.142;24.720;2024-02-21T13:27:52;8.00;;;3.08;;
35685;SDS011;21808;42.142;24.720;2024-02-21T13:30:21;9.85;;;3.05;;
35685;SDS011;21808;42.142;24.720;2024-02-21T13:32:48;28.58;;;6.90;;
35685;SDS011;21808;42.142;24.720;2024-02-21T13:35:15;8.90;;;3.22;;
35685;SDS011;21808;42.142;24.720;2024-02-21T13:37:41;8.15;;;3.20;;
35685;SDS011;21808;42.142;24.720;2024-02-21T13:40:09;8.88;;;3.28;;
35685;SDS011;21808;42.142;24.720;2024-02-21T13:42:36;11.48;;;3.97;;
35685;SDS011;21808;42.142;24.720;2024-02-21T13:45:03;9.02;;;3.28;;
35685;SDS011;21808;42.142;24.720;2024-02-21T13:47:34;13.05;;;2.72;;
35685;SDS011;21808;42.142;24.720;2024-02-21T13:50:02;11.85;;;3.65;;
35685;SDS011;21808;42.142;24.720;2024-02-21T13:52:31;11.65;;;3.92;;
35685;SDS011;21808;42.142;24.720;2024-02-21T13:55:04;9.18;;;3.20;;
35685;SDS011;21808;42.142;24.720;2024-02-21T13:57:31;8.07;;;2.75;;
35685;SDS011;21808;42.142;24.720;2024-02-21T13:59:57;9.27;;;3.10;;
35685;SDS011;21808;42.142;24.720;2024-02-21T14:02:25;7.80;;;2.40;;
35685;SDS011;21808;42.142;24.720;2024-02-21T14:04:54;7.25;;;2.55;;
35685;SDS011;21808;42.142;24.720;2024-02-21T14:07:21;6.85;;;2.50;;
35685;SDS011;21808;42.142;24.720;2024-02-21T14:09:48;8.90;;;2.85;;
35685;SDS011;21808;42.142;24.720;2024-02-21T14:12:15;8.73;;;2.65;;
35685;SDS011;21808;42.142;24.720;2024-02-21T14:14:45;7.00;;;2.50;;
35685;SDS011;21808;42.142;24.720;2024-02-21T14:17:12;14.95;;;4.78;;
35685;SDS011;21808;42.142;24.720;2024-02-21T14:19:39;13.88;;;5.20;;
35685;SDS011;21808;42.142;24.720;2024-02-21T14:22:09;12.98;;;5.40;;
35685;SDS011;21808;42.142;24.720;2024-02-21T14:24:37;15.85;;;5.75;;